Time;durP1;ratioP1;P1;durP2;ratioP2;P2;SDS_P1;SDS_P2;PMS_P1;PMS_P2;Temp;Humidity;BMP_temperature;BMP_pressure;BME280_temperature;BME280_humidity;BME280_pressure;Samples;Min_cycle;Max_cycle;Signal;HPM_P1;HPM_P2
2023/04/23 00:01:11;;;;;;;0.40;0.40;;;;;;;5.69;100.00;99622.59;5051954;28;20467;-77
2023/04/23 00:03:38;;;;;;;0.30;0.30;;;;;;;5.73;100.00;99619.38;5035677;28;20391;-77
2023/04/23 00:06:05;;;;;;;0.40;0.40;;;;;;;5.75;100.00;99624.56;5035500;28;20455;-78
2023/04/23 00:08:31;;;;;;;0.40;0.40;;;;;;;5.74;100.00;99628.22;5052221;28;20033;-78
2023/04/23 00:11:05;;;;;;;0.40;0.40;;;;;;;5.73;100.00;99621.22;5051955;28;20033;-79
2023/04/23 00:13:31;;;;;;;0.40;0.40;;;;;;;5.75;100.00;99621.06;5035852;28;20035;-78
2023/04/23 00:16:02;;;;;;;0.40;0.40;;;;;;;5.75;100.00;99621.06;5052049;28;20029;-78
2023/04/23 00:18:28;;;;;;;0.40;0.40;;;;;;;5.59;100.00;99597.97;5035337;28;20025;-77
2023/04/23 00:21:00;;;;;;;0.30;0.30;;;;;;;5.72;100.00;99617.72;5035504;28;20033;-78
2023/04/23 00:23:27;;;;;;;0.40;0.40;;;;;;;5.77;100.00;99625.22;5019334;28;20129;-78
2023/04/23 00:25:56;;;;;;;0.50;0.50;;;;;;;5.78;100.00;99626.88;5018996;28;20466;-77
2023/04/23 00:28:21;;;;;;;0.40;0.40;;;;;;;5.78;100.00;99618.88;5019447;28;20033;-77
2023/04/23 00:30:50;;;;;;;0.40;0.40;;;;;;;5.76;100.00;99617.38;5052746;28;20033;-77
2023/04/23 00:33:18;;;;;;;0.40;0.40;;;;;;;5.73;100.00;99611.38;5052189;28;20037;-78
2023/04/23 00:35:47;;;;;;;0.40;0.40;;;;;;;5.82;100.00;99627.34;5035384;28;20033;-79
2023/04/23 00:38:15;;;;;;;0.40;0.40;;;;;;;5.84;100.00;99623.50;5035100;28;20056;-78
2023/04/23 00:40:43;;;;;;;0.40;0.40;;;;;;;5.84;100.00;99620.00;5022545;28;20041;-79
2023/04/23 00:43:10;;;;;;;0.40;0.40;;;;;;;5.88;100.00;99613.34;5038936;28;20037;-77
2023/04/23 00:45:38;;;;;;;0.40;0.40;;;;;;;5.92;100.00;99630.66;5023483;28;20551;-77
2023/04/23 00:48:04;;;;;;;0.40;0.40;;;;;;;5.91;100.00;99618.31;5056621;28;20116;-77
2023/04/23 00:50:33;;;;;;;0.45;0.45;;;;;;;5.92;100.00;99625.31;5022180;28;20372;-77
2023/04/23 00:53:01;;;;;;;0.50;0.50;;;;;;;5.93;100.00;99627.00;5055306;28;20091;-80
2023/04/23 00:55:29;;;;;;;0.40;0.40;;;;;;;5.83;100.00;99613.03;5038260;28;20029;-78
2023/04/23 00:57:57;;;;;;;0.40;0.40;;;;;;;5.81;100.00;99623.03;5055149;28;20036;-78
2023/04/23 01:00:22;;;;;;;0.40;0.40;;;;;;;5.77;100.00;99629.69;5055042;28;20094;-77
2023/04/23 01:02:49;;;;;;;0.50;0.50;;;;;;;5.65;100.00;99605.25;5038645;28;20422;-78
2023/04/23 01:05:19;;;;;;;0.30;0.30;;;;;;;5.74;100.00;99633.53;5055067;28;20073;-77
2023/04/23 01:07:45;;;;;;;0.40;0.40;;;;;;;5.68;100.00;99620.91;5038261;28;20036;-79
2023/04/23 01:10:13;;;;;;;0.40;0.40;;;;;;;5.68;100.00;99626.25;5038439;28;20033;-77
2023/04/23 01:12:42;;;;;;;0.40;0.40;;;;;;;5.64;100.00;99625.75;5054273;28;20036;-78
2023/04/23 01:15:13;;;;;;;0.40;0.40;;;;;;;5.61;100.00;99618.13;5021931;28;20033;-78
2023/04/23 01:17:40;;;;;;;0.43;0.43;;;;;;;5.63;100.00;99629.41;5054916;28;20029;-77
2023/04/23 01:20:09;;;;;;;0.40;0.40;;;;;;;5.59;100.00;99625.44;5055039;28;20395;-77
2023/04/23 01:22:36;;;;;;;0.40;0.40;;;;;;;5.57;100.00;99619.44;5021542;28;20395;-78
2023/04/23 01:25:02;;;;;;;0.40;0.40;;;;;;;5.41;100.00;99596.34;5021771;28;20060;-76
2023/04/23 01:27:28;;;;;;;0.40;0.40;;;;;;;5.55;100.00;99620.63;5005322;28;20041;-78
2023/04/23 01:29:54;;;;;;;0.40;0.40;;;;;;;5.48;100.00;99618.66;5037879;28;20045;-77
2023/04/23 01:32:20;;;;;;;0.40;0.40;;;;;;;5.48;100.00;99612.50;5038072;28;20029;-78
2023/04/23 01:34:46;;;;;;;0.40;0.40;;;;;;;5.51;100.00;99628.13;5054575;28;20036;-77
2023/04/23 01:37:12;;;;;;;0.40;0.40;;;;;;;5.48;100.00;99610.66;5054185;28;20021;-78
2023/04/23 01:39:40;;;;;;;0.40;0.40;;;;;;;5.57;100.00;99623.97;5037818;28;20104;-77
2023/04/23 01:42:06;;;;;;;0.40;0.40;;;;;;;5.60;100.00;99629.75;5054179;28;20025;-78
2023/04/23 01:44:34;;;;;;;0.40;0.40;;;;;;;5.55;100.00;99624.13;5054299;28;20044;-77
2023/04/23 01:47:20;;;;;;;0.40;0.40;;;;;;;5.55;100.00;99624.13;5039235;28;20049;-77
2023/04/23 01:49:45;;;;;;;0.40;0.40;;;;;;;5.56;100.00;99617.78;5036781;28;20391;-80
2023/04/23 01:52:16;;;;;;;0.40;0.40;;;;;;;5.57;100.00;99615.94;5052288;28;20116;-77
2023/04/23 01:54:47;;;;;;;0.40;0.40;;;;;;;5.55;100.00;99609.94;5037760;28;20033;-77
2023/04/23 01:57:12;;;;;;;0.40;0.40;;;;;;;5.55;100.00;99601.97;5038187;28;20029;-77
2023/04/23 01:59:38;;;;;;;0.40;0.40;;;;;;;5.54;100.00;99595.78;5055023;28;20074;-78
2023/04/23 02:02:04;;;;;;;0.35;0.35;;;;;;;5.56;100.00;99603.59;5021213;28;20438;-77
2023/04/23 02:04:30;;;;;;;0.40;0.40;;;;;;;5.57;100.00;99606.13;5020693;28;20451;-77
2023/04/23 02:06:56;;;;;;;0.40;0.40;;;;;;;5.61;100.00;99610.13;5054134;28;20037;-78
2023/04/23 02:09:21;;;;;;;0.40;0.40;;;;;;;5.59;100.00;99597.97;5037372;28;20446;-78
2023/04/23 02:11:47;;;;;;;0.40;0.40;;;;;;;5.68;100.00;99604.91;5037104;28;20040;-76
2023/04/23 02:14:16;;;;;;;0.40;0.40;;;;;;;5.66;100.00;99599.75;5037185;28;20075;-77
2023/04/23 02:16:42;;;;;;;0.40;0.40;;;;;;;5.75;100.00;99613.91;5036802;28;20421;-77
2023/04/23 02:19:11;;;;;;;0.40;0.40;;;;;;;5.75;100.00;99615.72;5037091;28;20029;-76
2023/04/23 02:21:39;;;;;;;0.40;0.40;;;;;;;5.77;100.00;99611.03;5054170;28;20063;-76
2023/04/23 02:24:05;;;;;;;0.30;0.30;;;;;;;5.77;100.00;99619.88;5054688;28;20029;-77
2023/04/23 02:26:35;;;;;;;0.40;0.40;;;;;;;5.72;100.00;99616.91;5037143;28;20653;-77
2023/04/23 02:29:04;;;;;;;0.40;0.40;;;;;;;5.73;100.00;99613.22;5053570;28;20044;-76
2023/04/23 02:31:33;;;;;;;0.40;0.40;;;;;;;5.76;100.00;99614.72;5036936;28;20039;-79
2023/04/23 02:34:04;;;;;;;0.40;0.40;;;;;;;5.83;100.00;99615.69;5036744;28;20536;-76
2023/04/23 02:36:31;;;;;;;0.40;0.40;;;;;;;5.81;100.00;99618.53;5036736;28;20021;-77
2023/04/23 02:39:03;;;;;;;0.40;0.40;;;;;;;5.77;100.00;99616.38;5053019;28;20033;-77
2023/04/23 02:41:31;;;;;;;0.40;0.40;;;;;;;5.76;100.00;99612.06;5036607;28;20372;-77
2023/04/23 02:44:00;;;;;;;0.40;0.40;;;;;;;5.80;100.00;99611.53;5052844;28;20036;-77
2023/04/23 02:46:31;;;;;;;0.40;0.40;;;;;;;5.84;100.00;99617.34;5036715;28;20040;-77
2023/04/23 02:48:59;;;;;;;0.40;0.40;;;;;;;5.83;100.00;99607.69;5037382;28;20040;-77
2023/04/23 02:51:28;;;;;;;0.40;0.40;;;;;;;5.88;100.00;99610.69;5053029;28;20041;-76
2023/04/23 02:53:53;;;;;;;0.40;0.40;;;;;;;5.89;100.00;99615.00;5052711;28;20108;-78
2023/04/23 02:56:22;;;;;;;0.40;0.40;;;;;;;5.88;100.00;99608.84;5036315;28;20502;-77
2023/04/23 02:58:48;;;;;;;0.40;0.40;;;;;;;5.89;100.00;99620.34;5052638;28;20459;-76
2023/04/23 03:01:16;;;;;;;0.40;0.40;;;;;;;5.84;100.00;99610.16;5019255;28;20040;-79
2023/04/23 03:03:44;;;;;;;0.40;0.40;;;;;;;5.80;100.00;99611.53;5036958;28;20029;-77
2023/04/23 03:06:19;;;;;;;0.32;0.32;;;;;;;5.78;100.00;99610.06;5052879;28;20053;-77
2023/04/23 03:08:47;;;;;;;0.40;0.40;;;;;;;5.79;100.00;99607.19;5036160;28;20112;-77
2023/04/23 03:11:13;;;;;;;0.40;0.40;;;;;;;5.80;100.00;99616.88;5019878;28;20039;-77
2023/04/23 03:13:41;;;;;;;0.40;0.40;;;;;;;5.83;100.00;99623.69;5052642;28;20380;-77
2023/04/23 03:16:07;;;;;;;0.40;0.40;;;;;;;5.82;100.00;99611.34;5052350;28;20104;-76
2023/04/23 03:18:33;;;;;;;0.40;0.40;;;;;;;5.83;100.00;99613.84;5052465;28;20107;-77
2023/04/23 03:21:01;;;;;;;0.40;0.40;;;;;;;5.82;100.00;99611.34;5019631;28;20063;-78
2023/04/23 03:23:32;;;;;;;0.30;0.30;;;;;;;5.78;100.00;99618.06;5019625;28;20491;-77
2023/04/23 03:25:57;;;;;;;0.40;0.40;;;;;;;5.73;100.00;99615.91;5048378;28;20477;-77
2023/04/23 03:28:26;;;;;;;0.40;0.40;;;;;;;5.67;100.00;99616.59;5036307;28;20044;-77
2023/04/23 03:30:52;;;;;;;0.40;0.40;;;;;;;5.64;100.00;99620.44;5036009;28;20364;-77
2023/04/23 03:33:17;;;;;;;0.40;0.40;;;;;;;5.65;100.00;99618.59;5053575;28;20079;-77
2023/04/23 03:35:47;;;;;;;0.35;0.35;;;;;;;5.68;100.00;99623.56;5035479;28;20027;-77
2023/04/23 03:38:15;;;;;;;0.40;0.40;;;;;;;5.65;100.00;99622.09;5019212;28;20025;-77
2023/04/23 03:40:41;;;;;;;0.40;0.40;;;;;;;5.57;100.00;99614.13;5035435;28;20040;-78
2023/04/23 03:43:06;;;;;;;0.40;0.40;;;;;;;5.60;100.00;99626.28;5052292;28;20029;-78
2023/04/23 03:45:35;;;;;;;0.40;0.40;;;;;;;5.53;100.00;99627.94;5035760;28;20082;-77
2023/04/23 03:48:03;;;;;;;0.45;0.45;;;;;;;5.43;100.00;99622.84;5020362;28;20045;-77
2023/04/23 03:50:37;;;;;;;0.40;0.40;;;;;;;5.31;100.00;99613.53;5035385;28;20112;-77
2023/04/23 03:53:03;;;;;;;0.40;0.40;;;;;;;5.33;100.00;99625.69;5036206;28;20454;-76
2023/04/23 03:55:34;;;;;;;0.40;0.40;;;;;;;5.35;100.00;99622.84;5052172;28;20462;-77
2023/04/23 03:58:02;;;;;;;0.40;0.40;;;;;;;5.40;100.00;99626.66;5052080;28;20124;-76
2023/04/23 04:00:28;;;;;;;0.40;0.40;;;;;;;5.42;100.00;99626.47;5035746;28;20475;-77
2023/04/23 04:03:00;;;;;;;0.40;0.40;;;;;;;5.45;100.00;99640.31;5035321;28;20039;-78
2023/04/23 04:05:29;;;;;;;0.30;0.30;;;;;;;5.43;100.00;99641.50;5052042;28;20025;-80
2023/04/23 04:07:55;;;;;;;0.40;0.40;;;;;;;5.41;100.00;99643.50;5052114;28;20044;-78
2023/04/23 04:10:25;;;;;;;0.40;0.40;;;;;;;5.39;100.00;99640.97;5035618;28;20368;-78
2023/04/23 04:12:54;;;;;;;0.40;0.40;;;;;;;5.37;100.00;99626.16;5035632;28;20032;-77
2023/04/23 04:15:19;;;;;;;0.40;0.40;;;;;;;5.43;100.00;99636.16;5055751;28;20036;-77
2023/04/23 04:17:51;;;;;;;0.30;0.30;;;;;;;5.49;100.00;99635.47;5055802;28;20037;-77
2023/04/23 04:20:19;;;;;;;0.40;0.40;;;;;;;5.49;100.00;99641.63;5039414;28;20471;-77
2023/04/23 04:22:47;;;;;;;0.30;0.30;;;;;;;5.52;100.00;99632.47;5022862;28;20040;-76
2023/04/23 04:25:18;;;;;;;0.40;0.40;;;;;;;5.51;100.00;99639.63;5039492;28;20040;-77
2023/04/23 04:27:44;;;;;;;0.30;0.30;;;;;;;5.41;100.00;99635.50;5055417;28;20086;-77
2023/04/23 04:30:13;;;;;;;0.40;0.40;;;;;;;5.46;100.00;99649.16;5039602;28;20029;-77
2023/04/23 04:32:44;;;;;;;0.40;0.40;;;;;;;5.35;100.00;99639.66;5055380;28;20021;-77
2023/04/23 04:35:11;;;;;;;0.40;0.40;;;;;;;5.40;100.00;99652.47;5022921;28;20044;-76
2023/04/23 04:37:37;;;;;;;0.40;0.40;;;;;;;5.38;100.00;99660.66;5055508;28;20026;-77
2023/04/23 04:40:06;;;;;;;0.40;0.40;;;;;;;5.38;100.00;99660.66;5039032;28;20029;-76
2023/04/23 04:42:37;;;;;;;0.30;0.30;;;;;;;5.31;100.00;99651.66;5039145;28;20029;-77
2023/04/23 04:45:04;;;;;;;0.40;0.40;;;;;;;5.37;100.00;99656.34;5022647;28;20029;-77
2023/04/23 04:47:31;;;;;;;0.32;0.32;;;;;;;5.41;100.00;99662.16;5039090;28;20037;-77
2023/04/23 04:50:00;;;;;;;0.40;0.40;;;;;;;5.42;100.00;99663.81;5056496;28;20025;-77
2023/04/23 04:52:26;;;;;;;0.40;0.40;;;;;;;5.41;100.00;99659.47;5038470;28;20025;-78
2023/04/23 04:54:52;;;;;;;0.50;0.50;;;;;;;5.43;100.00;99660.97;5055080;28;20041;-78
2023/04/23 04:57:19;;;;;;;0.40;0.40;;;;;;;5.37;100.00;99648.34;5056209;28;20032;-77
2023/04/23 04:59:45;;;;;;;0.30;0.30;;;;;;;5.53;100.00;99670.63;5056061;28;20119;-78
2023/04/23 05:02:11;;;;;;;0.50;0.50;;;;;;;5.55;100.00;99671.28;5038556;28;20120;-78
2023/04/23 05:04:36;;;;;;;0.40;0.40;;;;;;;5.54;100.00;99670.47;5038457;28;20108;-77
2023/04/23 05:07:05;;;;;;;0.40;0.40;;;;;;;5.58;100.00;99666.44;5038608;28;20033;-78
2023/04/23 05:09:33;;;;;;;0.40;0.40;;;;;;;5.59;100.00;99662.78;5039194;28;20043;-77
2023/04/23 05:12:01;;;;;;;0.40;0.40;;;;;;;5.59;100.00;99670.78;5038883;28;20041;-77
2023/04/23 05:14:27;;;;;;;0.40;0.40;;;;;;;5.53;100.00;99668.81;5054504;28;20037;-77
2023/04/23 05:17:02;;;;;;;0.40;0.40;;;;;;;5.57;100.00;99675.44;5054438;28;20029;-77
2023/04/23 05:19:31;;;;;;;0.30;0.30;;;;;;;5.60;100.00;99677.75;5022655;28;20039;-76
2023/04/23 05:22:04;;;;;;;0.40;0.40;;;;;;;5.55;100.00;99672.09;5054901;28;20028;-77
2023/04/23 05:24:32;;;;;;;0.40;0.40;;;;;;;5.46;100.00;99673.13;5054279;28;20039;-77
2023/04/23 05:27:01;;;;;;;0.40;0.40;;;;;;;5.55;100.00;99679.28;5021694;28;20033;-77
2023/04/23 05:29:44;;;;;;;0.40;0.40;;;;;;;5.48;100.00;99681.81;5039048;28;20033;-78
2023/04/23 05:32:12;;;;;;;0.40;0.40;;;;;;;5.50;100.00;99685.13;5021234;28;20087;-76
2023/04/23 05:34:40;;;;;;;0.40;0.40;;;;;;;5.46;100.00;99678.47;5038265;28;20040;-76
2023/04/23 05:37:11;;;;;;;0.40;0.40;;;;;;;5.49;100.00;99683.47;5021367;28;20373;-77
2023/04/23 05:39:39;;;;;;;0.30;0.30;;;;;;;5.54;100.00;99694.44;5054234;28;20059;-77
2023/04/23 05:42:05;;;;;;;0.40;0.40;;;;;;;5.57;100.00;99687.94;5054393;28;20025;-76
2023/04/23 05:44:34;;;;;;;0.40;0.40;;;;;;;5.60;100.00;99696.44;5037811;28;20040;-78
2023/04/23 05:47:01;;;;;;;0.40;0.40;;;;;;;5.65;100.00;99693.25;5021141;28;20441;-77
2023/04/23 05:49:27;;;;;;;0.40;0.40;;;;;;;5.67;100.00;99692.09;5037860;28;20460;-78
2023/04/23 05:51:57;;;;;;;0.43;0.43;;;;;;;5.67;100.00;99688.59;5053998;28;20104;-78
2023/04/23 05:54:25;;;;;;;0.40;0.40;;;;;;;5.76;100.00;99692.06;5021250;28;20051;-77
2023/04/23 05:56:50;;;;;;;0.40;0.40;;;;;;;5.78;100.00;99693.56;5054486;28;20067;-77
2023/04/23 05:59:16;;;;;;;0.40;0.40;;;;;;;5.87;100.00;99689.84;5020226;28;20432;-78
2023/04/23 06:01:46;;;;;;;0.50;0.50;;;;;;;5.97;100.00;99681.69;5037699;28;20029;-77
2023/04/23 06:04:12;;;;;;;0.40;0.40;;;;;;;6.12;100.00;99689.81;5053967;28;20492;-79
2023/04/23 06:06:38;;;;;;;0.40;0.40;;;;;;;6.23;100.00;99685.94;5053695;28;20033;-76
2023/04/23 06:09:04;;;;;;;0.40;0.40;;;;;;;6.33;100.00;99692.72;5037031;28;20040;-80
2023/04/23 06:11:31;;;;;;;0.40;0.40;;;;;;;6.44;100.00;99696.00;5036999;28;20025;-80
2023/04/23 06:14:01;;;;;;;0.40;0.40;;;;;;;6.55;100.00;99687.59;5037232;28;20025;-77
2023/04/23 06:16:29;;;;;;;0.40;0.40;;;;;;;6.67;100.00;99696.03;5020690;28;20040;-77
2023/04/23 06:18:55;;;;;;;0.40;0.40;;;;;;;6.77;100.00;99704.66;5053364;28;20025;-77
2023/04/23 06:21:26;;;;;;;0.40;0.40;;;;;;;6.90;100.00;99699.53;5053491;28;20502;-78
2023/04/23 06:23:51;;;;;;;0.40;0.40;;;;;;;6.97;100.00;99708.53;5037112;28;20040;-77
2023/04/23 06:26:20;;;;;;;0.50;0.50;;;;;;;7.02;100.00;99716.84;5037118;28;20040;-79
2023/04/23 06:28:46;;;;;;;0.40;0.40;;;;;;;7.12;100.00;99713.94;5053572;28;20028;-79
2023/04/23 06:31:15;;;;;;;0.30;0.30;;;;;;;7.09;100.00;99692.88;5036596;28;20531;-77
2023/04/23 06:33:42;;;;;;;0.40;0.40;;;;;;;7.19;100.00;99714.03;5053283;28;20025;-78
2023/04/23 06:36:09;;;;;;;0.38;0.38;;;;;;;7.21;100.00;99720.88;5036119;28;20056;-78
2023/04/23 06:38:40;;;;;;;0.40;0.40;;;;;;;7.26;100.00;99718.50;5037145;28;20028;-80
2023/04/23 06:41:06;;;;;;;0.40;0.40;;;;;;;7.45;100.00;99729.69;5036372;28;20163;-78
2023/04/23 06:43:31;;;;;;;0.40;0.40;;;;;;;7.65;100.00;99732.72;5036630;28;20051;-78
2023/04/23 06:45:57;;;;;;;0.50;0.50;;;;;;;7.69;100.00;99726.78;5052985;28;20395;-79
2023/04/23 06:48:24;;;;;;;0.40;0.40;;;;;;;7.88;100.00;99735.28;5035955;28;20044;-78
2023/04/23 06:50:50;;;;;;;0.47;0.47;;;;;;;8.21;100.00;99743.00;5053150;28;20029;-79
2023/04/23 06:53:15;;;;;;;0.40;0.40;;;;;;;8.48;100.00;99741.50;5035113;28;20087;-78
2023/04/23 06:55:41;;;;;;;0.40;0.40;;;;;;;8.69;100.00;99738.88;5052813;28;20040;-81
2023/04/23 06:58:07;;;;;;;0.40;0.40;;;;;;;8.84;100.00;99754.06;5034947;28;20044;-78
2023/04/23 07:00:33;;;;;;;0.40;0.40;;;;;;;8.95;100.00;99741.03;5051862;28;20029;-79
2023/04/23 07:02:59;;;;;;;0.50;0.50;;;;;;;8.79;100.00;99752.81;5035770;28;20025;-80
2023/04/23 07:05:25;;;;;;;0.47;0.47;;;;;;;8.61;100.00;99746.19;5019715;28;20036;-80
2023/04/23 07:07:51;;;;;;;0.40;0.40;;;;;;;8.58;100.00;99750.09;5052243;28;20033;-79
2023/04/23 07:10:18;;;;;;;0.40;0.40;;;;;;;8.45;100.00;99755.28;5052457;28;20029;-81
2023/04/23 07:12:44;;;;;;;0.40;0.40;;;;;;;8.26;100.00;99749.44;5019677;28;20068;-79
2023/04/23 07:15:10;;;;;;;0.40;0.40;;;;;;;8.33;100.00;99770.94;5035889;28;20064;-80
2023/04/23 07:17:35;;;;;;;0.40;0.40;;;;;;;8.48;100.00;99770.97;5035384;28;20033;-80
2023/04/23 07:20:05;;;;;;;0.40;0.40;;;;;;;8.51;100.00;99758.03;5035488;28;20509;-80
2023/04/23 07:22:31;;;;;;;0.40;0.40;;;;;;;8.57;100.00;99768.03;5035848;28;20036;-80
2023/04/23 07:24:57;;;;;;;0.40;0.40;;;;;;;9.16;100.00;99783.13;5035475;28;20042;-78
2023/04/23 07:27:25;;;;;;;0.40;0.40;;;;;;;9.41;100.00;99780.88;5035827;28;20642;-79
2023/04/23 07:29:53;;;;;;;0.40;0.40;;;;;;;9.75;100.00;99773.13;5035040;28;20040;-77
2023/04/23 07:32:22;;;;;;;0.40;0.40;;;;;;;10.15;100.00;99782.28;5019560;28;20044;-79
2023/04/23 07:34:48;;;;;;;0.40;0.40;;;;;;;10.53;100.00;99784.59;5035724;28;20154;-78
2023/04/23 07:37:14;;;;;;;0.50;0.50;;;;;;;11.49;100.00;99783.66;5050552;28;20189;-77
2023/04/23 07:39:53;;;;;;;;;;;;;;;;;;;;;
2023/04/23 07:42:40;;;;;;;0.50;0.50;;;;;;;11.97;100.00;99756.53;5052376;28;20032;-78
2023/04/23 07:45:06;;;;;;;0.50;0.50;;;;;;;14.61;100.00;99775.84;5019154;28;20032;-79
2023/04/23 07:47:32;;;;;;;0.50;0.50;;;;;;;16.78;100.00;99800.78;5053174;28;20044;-80
2023/04/23 07:49:57;;;;;;;0.50;0.50;;;;;;;17.21;100.00;99810.31;5055478;28;20032;-77
2023/04/23 07:52:23;;;;;;;0.40;0.40;;;;;;;16.35;99.09;99815.53;5039621;28;20418;-78
2023/04/23 07:54:49;;;;;;;0.40;0.40;;;;;;;15.06;100.00;99805.25;5023041;28;20036;-77
2023/04/23 07:57:17;;;;;;;0.50;0.50;;;;;;;14.32;100.00;99812.53;5023339;28;20083;-79
2023/04/23 07:59:42;;;;;;;0.40;0.40;;;;;;;13.63;100.00;99813.31;5023325;28;20044;-76
2023/04/23 08:02:08;;;;;;;0.40;0.40;;;;;;;13.22;100.00;99824.56;5022746;28;20395;-82
2023/04/23 08:04:34;;;;;;;0.45;0.45;;;;;;;13.05;100.00;99829.63;5055782;28;20021;-82
2023/04/23 08:06:59;;;;;;;0.57;0.57;;;;;;;13.42;100.00;99824.47;5039527;28;20040;-82
2023/04/23 08:09:25;;;;;;;0.50;0.50;;;;;;;13.92;100.00;99827.25;5039436;28;20391;-82
2023/04/23 08:11:51;;;;;;;0.65;0.65;;;;;;;13.26;100.00;99816.84;5055859;28;20033;-83
2023/04/23 08:14:17;;;;;;;0.40;0.40;;;;;;;12.79;100.00;99825.16;5022808;28;20082;-83
2023/04/23 08:16:43;;;;;;;0.55;0.55;;;;;;;12.25;100.00;99813.72;5022808;28;20063;-82
2023/04/23 08:19:09;;;;;;;2.65;1.02;;;;;;;11.88;100.00;99824.09;5038989;28;20056;-82
2023/04/23 08:21:35;;;;;;;1.02;1.02;;;;;;;11.73;100.00;99836.06;5022846;28;20501;-82
2023/04/23 08:24:04;;;;;;;0.95;0.95;;;;;;;11.51;100.00;99841.63;5039038;28;20115;-81
2023/04/23 08:26:30;;;;;;;0.93;0.93;;;;;;;13.00;100.00;99847.50;5055516;28;20416;-81
2023/04/23 08:28:56;;;;;;;1.33;1.23;;;;;;;12.62;100.00;99849.09;5055428;28;20029;-76
2023/04/23 08:31:22;;;;;;;2.20;2.00;;;;;;;12.90;100.00;99854.19;5039134;28;20167;-78
2023/04/23 08:33:48;;;;;;;1.85;1.48;;;;;;;12.48;100.00;99845.56;5054641;28;20033;-79
2023/04/23 08:36:14;;;;;;;1.42;1.33;;;;;;;12.05;100.00;99843.34;5055463;28;20036;-78
2023/04/23 08:38:40;;;;;;;3.03;2.05;;;;;;;12.16;100.00;99849.97;5038759;28;20438;-80
2023/04/23 08:41:09;;;;;;;3.28;2.63;;;;;;;12.41;100.00;99838.53;5054860;28;20368;-80
2023/04/23 08:43:44;;;;;;;3.30;2.53;;;;;;;12.82;100.00;99851.72;5055109;28;20418;-80
2023/04/23 08:46:12;;;;;;;4.28;3.20;;;;;;;12.45;100.00;99861.34;5037915;28;20029;-80
2023/04/23 08:48:39;;;;;;;4.13;2.67;;;;;;;12.38;100.00;99857.84;5021885;28;20431;-80
2023/04/23 08:51:10;;;;;;;6.90;3.70;;;;;;;12.20;100.00;99861.16;5038460;28;20033;-77
2023/04/23 08:53:36;;;;;;;2.53;2.08;;;;;;;12.88;100.00;99869.75;5054723;28;20472;-78
2023/04/23 08:56:02;;;;;;;2.70;2.38;;;;;;;13.00;100.00;99872.63;5021831;28;20049;-79
2023/04/23 08:58:28;;;;;;;3.97;3.42;;;;;;;12.88;100.00;99869.75;5038473;28;20029;-77
2023/04/23 09:00:56;;;;;;;3.65;2.75;;;;;;;14.96;100.00;99862.63;5053861;28;20045;-77
2023/04/23 09:03:24;;;;;;;3.63;2.50;;;;;;;15.79;100.00;99871.97;5037989;28;20475;-80
2023/04/23 09:05:52;;;;;;;3.22;2.75;;;;;;;15.24;100.00;99872.06;5038491;28;20510;-80
2023/04/23 09:08:20;;;;;;;5.60;3.55;;;;;;;16.22;100.00;99879.84;5038528;28;20033;-81
2023/04/23 09:10:46;;;;;;;5.93;3.45;;;;;;;16.58;100.00;99894.22;5038260;28;20025;-81
2023/04/23 09:13:12;;;;;;;3.55;2.63;;;;;;;16.21;100.00;99894.44;5054767;28;20029;-81
2023/04/23 09:15:42;;;;;;;4.28;3.42;;;;;;;16.26;100.00;99889.16;5021820;28;20463;-80
2023/04/23 09:18:08;;;;;;;4.57;3.55;;;;;;;17.02;100.00;99872.16;5037928;28;20398;-79
2023/04/23 09:20:36;;;;;;;4.90;3.60;;;;;;;20.43;88.47;99890.91;5021599;28;20039;-79
2023/04/23 09:23:08;;;;;;;3.17;2.40;;;;;;;19.75;90.83;99901.50;5021969;28;20048;-80
2023/04/23 09:25:35;;;;;;;2.63;2.25;;;;;;;17.14;95.65;99898.19;5021850;28;20072;-81
2023/04/23 09:28:01;;;;;;;3.15;2.30;;;;;;;16.42;98.86;99900.38;5021545;28;20033;-77
2023/04/23 09:30:29;;;;;;;4.78;2.65;;;;;;;15.90;98.80;99908.28;5038201;28;20040;-77
2023/04/23 09:32:55;;;;;;;2.47;1.77;;;;;;;15.96;100.00;99910.91;5021570;28;20044;-79
2023/04/23 09:35:21;;;;;;;3.78;2.35;;;;;;;15.39;100.00;99908.53;5021447;28;20025;-78
2023/04/23 09:37:48;;;;;;;3.08;2.10;;;;;;;16.49;99.16;99906.50;5037764;28;20094;-80
2023/04/23 09:40:27;;;;;;;3.88;3.00;;;;;;;17.49;96.91;99924.47;5054325;28;20064;-77
2023/04/23 09:42:53;;;;;;;3.65;2.67;;;;;;;19.01;86.30;99918.31;5022114;28;20052;-79
2023/04/23 09:45:19;;;;;;;5.10;2.95;;;;;;;17.85;91.78;99918.91;5053805;28;20103;-78
2023/04/23 09:47:52;;;;;;;4.28;2.55;;;;;;;19.01;88.31;99923.75;5053956;28;20047;-79
2023/04/23 09:50:18;;;;;;;4.18;2.50;;;;;;;;;;5021159;28;20090;-79
2023/04/23 09:52:54;;;;;;;2.78;2.33;;;;;;;22.33;70.88;99912.44;5054927;28;20064;-79
2023/04/23 09:55:37;;;;;;;3.05;2.55;;;;;;;20.60;75.01;99905.22;5037412;28;20395;-78
2023/04/23 09:58:17;;;;;;;4.32;2.30;;;;;;;18.75;87.02;99919.84;5037555;28;20493;-80
2023/04/23 10:00:43;;;;;;;2.47;2.28;;;;;;;17.70;91.57;99922.13;5034785;28;20075;-78
2023/04/23 10:03:11;;;;;;;5.18;2.63;;;;;;;17.22;95.03;99931.50;5037148;28;20041;-81
2023/04/23 10:05:46;;;;;;;5.75;2.13;;;;;;;16.91;90.78;99920.00;5037310;28;20041;-79
2023/04/23 10:08:13;;;;;;;3.72;2.08;;;;;;;17.63;91.37;99927.72;5037153;28;20036;-79
2023/04/23 10:10:39;;;;;;;3.70;3.00;;;;;;;18.21;91.59;99917.63;5036878;28;20029;-77
2023/04/23 10:13:07;;;;;;;4.50;2.33;;;;;;;18.90;84.96;99914.63;5020147;28;20044;-78
2023/04/23 10:15:36;;;;;;;4.07;3.30;;;;;;;17.72;82.50;99928.13;5037163;28;20033;-77
2023/04/23 10:18:03;;;;;;;3.63;2.47;;;;;;;16.99;87.06;99927.78;5034578;28;20096;-78
2023/04/23 10:20:28;;;;;;;4.07;3.10;;;;;;;16.49;87.14;99918.19;5019139;28;20032;-77
2023/04/23 10:22:55;;;;;;;3.25;2.42;;;;;;;16.29;87.93;99933.16;5018884;28;20032;-76
2023/04/23 10:25:22;;;;;;;2.78;2.03;;;;;;;17.26;78.06;99919.91;5052238;28;20078;-77
2023/04/23 10:27:48;;;;;;;2.20;1.70;;;;;;;17.86;70.37;99931.41;5036374;28;20044;-79
2023/04/23 10:30:14;;;;;;;3.55;2.40;;;;;;;18.29;69.52;99933.53;5020307;28;20033;-78
2023/04/23 10:32:40;;;;;;;2.83;2.30;;;;;;;20.38;62.03;99935.38;5053166;28;20123;-78
2023/04/23 10:35:08;;;;;;;4.00;2.30;;;;;;;19.18;52.87;99934.59;5053162;28;20127;-78
2023/04/23 10:37:35;;;;;;;3.85;2.83;;;;;;;20.84;51.84;99929.44;5036245;28;20055;-79
2023/04/23 10:40:13;;;;;;;3.40;2.35;;;;;;;22.10;43.89;99926.63;5020413;28;20103;-78
2023/04/23 10:42:39;;;;;;;2.45;1.50;;;;;;;21.24;42.00;99941.66;5036527;28;20545;-79
2023/04/23 10:45:31;;;;;;;2.42;2.00;;;;;;;19.32;46.90;99939.44;5052607;28;20021;-78
2023/04/23 10:47:57;;;;;;;2.63;1.92;;;;;;;18.07;46.31;99948.94;5032936;28;20037;-78
2023/04/23 10:50:25;;;;;;;3.45;2.45;;;;;;;17.15;49.16;99942.50;5036251;28;20368;-79
2023/04/23 10:52:57;;;;;;;3.38;1.83;;;;;;;16.15;52.03;99933.34;5036570;28;20060;-81
2023/04/23 10:55:28;;;;;;;4.25;2.58;;;;;;;15.37;54.34;99932.34;5033980;28;20048;-77
2023/04/23 10:58:04;;;;;;;3.40;2.65;;;;;;;14.79;57.01;99926.53;5052430;28;20029;-78
2023/04/23 11:00:42;;;;;;;3.97;2.13;;;;;;;14.58;59.58;99923.22;5020387;28;20055;-80
2023/04/23 11:03:34;;;;;;;6.82;2.65;;;;;;;14.70;60.54;99942.22;5052371;28;20479;-79
2023/04/23 11:06:01;;;;;;;6.13;3.00;;;;;;;15.68;57.39;99937.78;5036419;28;20025;-80
2023/04/23 11:08:30;;;;;;;5.50;4.07;;;;;;;15.72;54.80;99939.00;5019757;28;20025;-79
2023/04/23 11:11:01;;;;;;;3.83;3.30;;;;;;;17.51;53.82;99940.50;5035827;28;20033;-81
2023/04/23 11:13:27;;;;;;;4.03;3.10;;;;;;;18.06;50.74;99939.94;5052510;28;20155;-80
2023/04/23 11:16:17;;;;;;;5.88;3.45;;;;;;;20.88;45.23;99946.09;5019512;28;20033;-78
2023/04/23 11:19:07;;;;;;;4.88;2.90;;;;;;;19.92;46.19;99943.13;5051817;28;20456;-79
2023/04/23 11:21:59;;;;;;;4.15;3.13;;;;;;;22.98;38.75;99945.50;5035934;28;20048;-78
2023/04/23 11:24:41;;;;;;;5.57;4.07;;;;;;;22.75;37.84;99946.88;5052242;28;20108;-79
2023/04/23 11:27:14;;;;;;;3.20;2.72;;;;;;;19.63;44.09;99945.22;5019278;28;20102;-78
2023/04/23 11:29:42;;;;;;;6.00;3.30;;;;;;;22.25;39.76;99945.81;5051838;28;20036;-79
2023/04/23 11:32:09;;;;;;;4.10;2.80;;;;;;;21.91;37.01;99945.47;5035659;28;20045;-80
2023/04/23 11:34:39;;;;;;;5.72;3.22;;;;;;;20.16;42.41;99948.25;5019686;28;20135;-79
2023/04/23 11:37:05;;;;;;;4.80;3.00;;;;;;;18.92;44.78;99956.06;5029491;28;20070;-79
2023/04/23 11:39:31;;;;;;;3.42;3.00;;;;;;;18.07;46.31;99965.25;5035604;28;20025;-80